sensor_id;sensor_type;location;lat;lon;timestamp;P1;durP1;ratioP1;P2;durP2;ratioP2
24459;SDS011;12630;50.860;5.714;2022-12-28T00:00:23;2.80;;;1.77;;
24459;SDS011;12630;50.860;5.714;2022-12-28T00:02:50;3.45;;;1.60;;
24459;SDS011;12630;50.860;5.714;2022-12-28T00:05:17;3.83;;;1.90;;
24459;SDS011;12630;50.860;5.714;2022-12-28T00:07:45;3.95;;;1.83;;
24459;SDS011;12630;50.860;5.714;2022-12-28T00:10:14;3.05;;;2.00;;
24459;SDS011;12630;50.860;5.714;2022-12-28T00:12:41;3.17;;;1.70;;
24459;SDS011;12630;50.860;5.714;2022-12-28T00:15:08;3.45;;;1.70;;
24459;SDS011;12630;50.860;5.714;2022-12-28T00:17:36;5.13;;;2.20;;
24459;SDS011;12630;50.860;5.714;2022-12-28T00:20:03;5.57;;;1.90;;
24459;SDS011;12630;50.860;5.714;2022-12-28T00:22:31;3.92;;;2.55;;
24459;SDS011;12630;50.860;5.714;2022-12-28T00:24:59;5.43;;;2.00;;
24459;SDS011;12630;50.860;5.714;2022-12-28T00:27:27;7.57;;;2.00;;
24459;SDS011;12630;50.860;5.714;2022-12-28T00:29:56;5.72;;;2.08;;
24459;SDS011;12630;50.860;5.714;2022-12-28T00:32:23;4.20;;;2.00;;
24459;SDS011;12630;50.860;5.714;2022-12-28T00:34:51;6.60;;;2.22;;
24459;SDS011;12630;50.860;5.714;2022-12-28T00:37:18;5.43;;;2.53;;
24459;SDS011;12630;50.860;5.714;2022-12-28T00:39:45;5.78;;;2.45;;
24459;SDS011;12630;50.860;5.714;2022-12-28T00:42:13;3.45;;;1.60;;
24459;SDS011;12630;50.860;5.714;2022-12-28T00:44:41;4.20;;;1.83;;
24459;SDS011;12630;50.860;5.714;2022-12-28T00:47:09;5.37;;;1.60;;
24459;SDS011;12630;50.860;5.714;2022-12-28T00:49:36;2.40;;;1.55;;
24459;SDS011;12630;50.860;5.714;2022-12-28T00:52:03;2.67;;;1.70;;
24459;SDS011;12630;50.860;5.714;2022-12-28T00:54:31;4.13;;;1.80;;
24459;SDS011;12630;50.860;5.714;2022-12-28T00:56:58;3.75;;;1.65;;
24459;SDS011;12630;50.860;5.714;2022-12-28T00:59:25;2.83;;;2.13;;
24459;SDS011;12630;50.860;5.714;2022-12-28T01:01:54;3.90;;;1.58;;
24459;SDS011;12630;50.860;5.714;2022-12-28T01:04:21;2.58;;;1.30;;
24459;SDS011;12630;50.860;5.714;2022-12-28T01:06:48;2.78;;;1.77;;
24459;SDS011;12630;50.860;5.714;2022-12-28T01:09:15;5.07;;;1.63;;
24459;SDS011;12630;50.860;5.714;2022-12-28T01:11:43;5.78;;;1.33;;
24459;SDS011;12630;50.860;5.714;2022-12-28T01:14:10;3.35;;;1.90;;
24459;SDS011;12630;50.860;5.714;2022-12-28T01:16:37;2.67;;;1.40;;
24459;SDS011;12630;50.860;5.714;2022-12-28T01:19:06;1.80;;;1.45;;
24459;SDS011;12630;50.860;5.714;2022-12-28T01:21:34;4.20;;;1.92;;
24459;SDS011;12630;50.860;5.714;2022-12-28T01:24:02;2.05;;;1.52;;
24459;SDS011;12630;50.860;5.714;2022-12-28T01:28:59;2.50;;;1.52;;
24459;SDS011;12630;50.860;5.714;2022-12-28T01:31:26;4.18;;;1.75;;
24459;SDS011;12630;50.860;5.714;2022-12-28T01:33:53;3.10;;;1.60;;
24459;SDS011;12630;50.860;5.714;2022-12-28T01:36:23;2.63;;;1.48;;
24459;SDS011;12630;50.860;5.714;2022-12-28T01:38:52;3.83;;;1.52;;
24459;SDS011;12630;50.860;5.714;2022-12-28T01:41:21;1.50;;;1.17;;
24459;SDS011;12630;50.860;5.714;2022-12-28T01:46:49;4.15;;;1.52;;
24459;SDS011;12630;50.860;5.714;2022-12-28T01:49:18;2.55;;;1.30;;
24459;SDS011;12630;50.860;5.714;2022-12-28T01:51:51;1.52;;;1.30;;
24459;SDS011;12630;50.860;5.714;2022-12-28T01:54:22;2.35;;;1.42;;
24459;SDS011;12630;50.860;5.714;2022-12-28T01:56:52;4.75;;;1.98;;
24459;SDS011;12630;50.860;5.714;2022-12-28T01:59:21;4.88;;;1.63;;
24459;SDS011;12630;50.860;5.714;2022-12-28T02:01:51;6.53;;;1.95;;
24459;SDS011;12630;50.860;5.714;2022-12-28T02:04:19;2.15;;;1.48;;
24459;SDS011;12630;50.860;5.714;2022-12-28T02:06:46;2.83;;;1.40;;
24459;SDS011;12630;50.860;5.714;2022-12-28T02:09:16;2.20;;;1.73;;
24459;SDS011;12630;50.860;5.714;2022-12-28T02:11:47;5.45;;;1.63;;
24459;SDS011;12630;50.860;5.714;2022-12-28T02:14:15;2.80;;;1.75;;
24459;SDS011;12630;50.860;5.714;2022-12-28T02:19:12;2.55;;;1.17;;
24459;SDS011;12630;50.860;5.714;2022-12-28T02:21:46;2.38;;;1.52;;
24459;SDS011;12630;50.860;5.714;2022-12-28T02:24:38;4.90;;;1.95;;
24459;SDS011;12630;50.860;5.714;2022-12-28T02:27:21;1.70;;;1.35;;
24459;SDS011;12630;50.860;5.714;2022-12-28T02:30:00;2.55;;;1.20;;
24459;SDS011;12630;50.860;5.714;2022-12-28T02:32:32;1.98;;;1.52;;
24459;SDS011;12630;50.860;5.714;2022-12-28T02:35:12;5.65;;;1.48;;
24459;SDS011;12630;50.860;5.714;2022-12-28T02:37:45;4.47;;;1.58;;
24459;SDS011;12630;50.860;5.714;2022-12-28T02:40:15;1.58;;;1.23;;
24459;SDS011;12630;50.860;5.714;2022-12-28T02:42:47;5.57;;;2.08;;
24459;SDS011;12630;50.860;5.714;2022-12-28T02:45:31;4.60;;;2.47;;
24459;SDS011;12630;50.860;5.714;2022-12-28T02:48:20;2.58;;;1.58;;
24459;SDS011;12630;50.860;5.714;2022-12-28T02:51:12;2.40;;;1.50;;
24459;SDS011;12630;50.860;5.714;2022-12-28T02:54:00;3.30;;;1.55;;
24459;SDS011;12630;50.860;5.714;2022-12-28T02:57:01;4.25;;;1.92;;
24459;SDS011;12630;50.860;5.714;2022-12-28T02:59:38;3.45;;;1.92;;
24459;SDS011;12630;50.860;5.714;2022-12-28T03:02:22;2.95;;;1.92;;
24459;SDS011;12630;50.860;5.714;2022-12-28T03:05:04;4.28;;;1.90;;
24459;SDS011;12630;50.860;5.714;2022-12-28T03:07:38;1.85;;;1.50;;
24459;SDS011;12630;50.860;5.714;2022-12-28T03:10:31;4.22;;;1.60;;
24459;SDS011;12630;50.860;5.714;2022-12-28T03:13:08;3.60;;;1.65;;
24459;SDS011;12630;50.860;5.714;2022-12-28T03:15:52;2.35;;;1.63;;
24459;SDS011;12630;50.860;5.714;2022-12-28T03:18:25;3.10;;;1.70;;
24459;SDS011;12630;50.860;5.714;2022-12-28T03:21:13;2.65;;;1.48;;
24459;SDS011;12630;50.860;5.714;2022-12-28T03:23:58;2.42;;;1.25;;
24459;SDS011;12630;50.860;5.714;2022-12-28T03:26:46;2.00;;;1.58;;
24459;SDS011;12630;50.860;5.714;2022-12-28T03:29:32;3.20;;;1.38;;
24459;SDS011;12630;50.860;5.714;2022-12-28T03:32:23;2.25;;;1.38;;
24459;SDS011;12630;50.860;5.714;2022-12-28T03:34:51;2.97;;;1.52;;
24459;SDS011;12630;50.860;5.714;2022-12-28T03:37:19;3.07;;;1.23;;
24459;SDS011;12630;50.860;5.714;2022-12-28T03:39:55;1.98;;;1.48;;
24459;SDS011;12630;50.860;5.714;2022-12-28T03:42:28;2.78;;;1.70;;
24459;SDS011;12630;50.860;5.714;2022-12-28T03:45:17;2.72;;;1.55;;
24459;SDS011;12630;50.860;5.714;2022-12-28T03:47:48;3.67;;;1.50;;
24459;SDS011;12630;50.860;5.714;2022-12-28T03:50:19;2.03;;;1.60;;
24459;SDS011;12630;50.860;5.714;2022-12-28T03:52:46;4.53;;;1.25;;
24459;SDS011;12630;50.860;5.714;2022-12-28T03:55:14;1.50;;;1.40;;
24459;SDS011;12630;50.860;5.714;2022-12-28T03:57:41;2.05;;;1.13;;
24459;SDS011;12630;50.860;5.714;2022-12-28T04:00:09;3.63;;;1.35;;
24459;SDS011;12630;50.860;5.714;2022-12-28T04:02:37;4.35;;;1.20;;
24459;SDS011;12630;50.860;5.714;2022-12-28T04:05:04;1.58;;;1.00;;
24459;SDS011;12630;50.860;5.714;2022-12-28T04:07:33;1.98;;;1.27;;
24459;SDS011;12630;50.860;5.714;2022-12-28T04:10:00;1.55;;;1.30;;
24459;SDS011;12630;50.860;5.714;2022-12-28T04:12:28;2.25;;;1.30;;
24459;SDS011;12630;50.860;5.714;2022-12-28T04:14:55;3.60;;;1.15;;
24459;SDS011;12630;50.860;5.714;2022-12-28T04:17:22;2.85;;;1.40;;
24459;SDS011;12630;50.860;5.714;2022-12-28T04:19:50;1.88;;;1.30;;
24459;SDS011;12630;50.860;5.714;2022-12-28T04:22:17;5.40;;;1.55;;
24459;SDS011;12630;50.860;5.714;2022-12-28T04:24:45;4.03;;;1.67;;
24459;SDS011;12630;50.860;5.714;2022-12-28T04:27:13;2.92;;;1.38;;
24459;SDS011;12630;50.860;5.714;2022-12-28T04:29:40;3.67;;;1.35;;
24459;SDS011;12630;50.860;5.714;2022-12-28T04:32:07;0.82;;;0.77;;
24459;SDS011;12630;50.860;5.714;2022-12-28T04:34:34;2.85;;;1.63;;
24459;SDS011;12630;50.860;5.714;2022-12-28T04:37:01;3.35;;;1.63;;
24459;SDS011;12630;50.860;5.714;2022-12-28T04:39:29;3.47;;;1.30;;
24459;SDS011;12630;50.860;5.714;2022-12-28T04:41:57;4.22;;;1.40;;
24459;SDS011;12630;50.860;5.714;2022-12-28T04:44:25;1.95;;;1.40;;
24459;SDS011;12630;50.860;5.714;2022-12-28T04:46:52;1.55;;;0.90;;
24459;SDS011;12630;50.860;5.714;2022-12-28T04:49:19;3.15;;;1.48;;
24459;SDS011;12630;50.860;5.714;2022-12-28T04:51:46;3.65;;;1.73;;
24459;SDS011;12630;50.860;5.714;2022-12-28T04:54:13;1.52;;;1.08;;
24459;SDS011;12630;50.860;5.714;2022-12-28T04:56:41;2.05;;;1.50;;
24459;SDS011;12630;50.860;5.714;2022-12-28T04:59:09;3.78;;;1.55;;
24459;SDS011;12630;50.860;5.714;2022-12-28T05:01:37;4.03;;;1.33;;
24459;SDS011;12630;50.860;5.714;2022-12-28T05:04:04;6.38;;;1.60;;
24459;SDS011;12630;50.860;5.714;2022-12-28T05:06:31;2.58;;;1.70;;
24459;SDS011;12630;50.860;5.714;2022-12-28T05:08:59;2.95;;;1.52;;
24459;SDS011;12630;50.860;5.714;2022-12-28T05:11:27;1.85;;;1.10;;
24459;SDS011;12630;50.860;5.714;2022-12-28T05:13:56;4.13;;;1.48;;
24459;SDS011;12630;50.860;5.714;2022-12-28T05:16:25;4.03;;;1.33;;
24459;SDS011;12630;50.860;5.714;2022-12-28T05:18:54;2.45;;;1.10;;
24459;SDS011;12630;50.860;5.714;2022-12-28T05:21:22;3.55;;;1.05;;
24459;SDS011;12630;50.860;5.714;2022-12-28T05:23:51;3.47;;;1.17;;
24459;SDS011;12630;50.860;5.714;2022-12-28T05:26:19;0.90;;;0.68;;
24459;SDS011;12630;50.860;5.714;2022-12-28T05:28:47;3.13;;;1.02;;
24459;SDS011;12630;50.860;5.714;2022-12-28T05:31:15;2.25;;;1.17;;
24459;SDS011;12630;50.860;5.714;2022-12-28T05:33:45;5.88;;;1.30;;
24459;SDS011;12630;50.860;5.714;2022-12-28T05:36:13;2.90;;;1.17;;
24459;SDS011;12630;50.860;5.714;2022-12-28T05:41:10;0.98;;;0.60;;
24459;SDS011;12630;50.860;5.714;2022-12-28T05:43:38;1.15;;;0.80;;
24459;SDS011;12630;50.860;5.714;2022-12-28T05:46:07;4.47;;;1.23;;
24459;SDS011;12630;50.860;5.714;2022-12-28T05:48:37;3.58;;;1.85;;
24459;SDS011;12630;50.860;5.714;2022-12-28T05:51:08;3.63;;;1.30;;
24459;SDS011;12630;50.860;5.714;2022-12-28T05:53:37;1.60;;;1.00;;
24459;SDS011;12630;50.860;5.714;2022-12-28T05:56:06;1.80;;;1.10;;
24459;SDS011;12630;50.860;5.714;2022-12-28T05:58:36;2.95;;;1.08;;
24459;SDS011;12630;50.860;5.714;2022-12-28T06:01:04;2.72;;;1.27;;
24459;SDS011;12630;50.860;5.714;2022-12-28T06:06:04;3.17;;;1.38;;
24459;SDS011;12630;50.860;5.714;2022-12-28T06:08:35;1.40;;;0.70;;
24459;SDS011;12630;50.860;5.714;2022-12-28T06:11:03;1.55;;;1.02;;
24459;SDS011;12630;50.860;5.714;2022-12-28T06:16:03;0.60;;;0.60;;
24459;SDS011;12630;50.860;5.714;2022-12-28T06:18:32;1.50;;;0.93;;
24459;SDS011;12630;50.860;5.714;2022-12-28T06:21:03;3.05;;;0.88;;
24459;SDS011;12630;50.860;5.714;2022-12-28T06:23:32;0.68;;;0.50;;
24459;SDS011;12630;50.860;5.714;2022-12-28T06:26:00;1.90;;;0.67;;
24459;SDS011;12630;50.860;5.714;2022-12-28T06:28:29;3.23;;;0.90;;
24459;SDS011;12630;50.860;5.714;2022-12-28T06:31:02;0.80;;;0.70;;
24459;SDS011;12630;50.860;5.714;2022-12-28T06:33:31;3.22;;;0.80;;
24459;SDS011;12630;50.860;5.714;2022-12-28T06:35:59;2.03;;;0.80;;
24459;SDS011;12630;50.860;5.714;2022-12-28T06:38:26;2.85;;;0.63;;
24459;SDS011;12630;50.860;5.714;2022-12-28T06:41:01;1.17;;;0.90;;
24459;SDS011;12630;50.860;5.714;2022-12-28T06:43:30;1.33;;;0.60;;
24459;SDS011;12630;50.860;5.714;2022-12-28T06:45:58;0.50;;;0.50;;
24459;SDS011;12630;50.860;5.714;2022-12-28T06:48:26;3.97;;;0.90;;
24459;SDS011;12630;50.860;5.714;2022-12-28T06:50:54;3.33;;;0.95;;
24459;SDS011;12630;50.860;5.714;2022-12-28T06:53:22;1.35;;;0.63;;
24459;SDS011;12630;50.860;5.714;2022-12-28T06:55:53;0.45;;;0.45;;
24459;SDS011;12630;50.860;5.714;2022-12-28T06:58:22;3.05;;;0.45;;
24459;SDS011;12630;50.860;5.714;2022-12-28T07:00:50;2.53;;;0.95;;
24459;SDS011;12630;50.860;5.714;2022-12-28T07:03:18;2.53;;;1.25;;
24459;SDS011;12630;50.860;5.714;2022-12-28T07:05:46;1.63;;;1.00;;
24459;SDS011;12630;50.860;5.714;2022-12-28T07:08:13;1.02;;;0.68;;
24459;SDS011;12630;50.860;5.714;2022-12-28T07:10:41;0.60;;;0.55;;
24459;SDS011;12630;50.860;5.714;2022-12-28T07:13:08;0.75;;;0.75;;
24459;SDS011;12630;50.860;5.714;2022-12-28T07:15:36;2.90;;;0.88;;
24459;SDS011;12630;50.860;5.714;2022-12-28T07:18:04;1.50;;;0.80;;
24459;SDS011;12630;50.860;5.714;2022-12-28T07:20:31;0.95;;;0.82;;
24459;SDS011;12630;50.860;5.714;2022-12-28T07:22:58;0.93;;;0.80;;
24459;SDS011;12630;50.860;5.714;2022-12-28T07:25:25;2.05;;;1.08;;
24459;SDS011;12630;50.860;5.714;2022-12-28T07:27:52;2.78;;;0.77;;
24459;SDS011;12630;50.860;5.714;2022-12-28T07:30:20;1.15;;;0.90;;
24459;SDS011;12630;50.860;5.714;2022-12-28T07:32:48;2.13;;;0.65;;
24459;SDS011;12630;50.860;5.714;2022-12-28T07:35:16;1.80;;;0.70;;
24459;SDS011;12630;50.860;5.714;2022-12-28T07:37:43;2.15;;;0.75;;
24459;SDS011;12630;50.860;5.714;2022-12-28T07:40:10;4.10;;;1.10;;
24459;SDS011;12630;50.860;5.714;2022-12-28T07:42:38;1.30;;;1.00;;
24459;SDS011;12630;50.860;5.714;2022-12-28T07:45:05;1.88;;;0.57;;
24459;SDS011;12630;50.860;5.714;2022-12-28T07:47:36;4.57;;;1.00;;
24459;SDS011;12630;50.860;5.714;2022-12-28T07:50:05;1.73;;;0.75;;
24459;SDS011;12630;50.860;5.714;2022-12-28T07:52:34;1.13;;;0.68;;
24459;SDS011;12630;50.860;5.714;2022-12-28T07:55:02;4.45;;;0.88;;
24459;SDS011;12630;50.860;5.714;2022-12-28T07:57:29;3.30;;;0.80;;
24459;SDS011;12630;50.860;5.714;2022-12-28T07:59:56;1.55;;;0.70;;
24459;SDS011;12630;50.860;5.714;2022-12-28T08:02:24;1.20;;;0.80;;
24459;SDS011;12630;50.860;5.714;2022-12-28T08:04:51;2.13;;;0.50;;
24459;SDS011;12630;50.860;5.714;2022-12-28T08:07:20;3.25;;;0.85;;
24459;SDS011;12630;50.860;5.714;2022-12-28T08:09:47;3.08;;;0.75;;
24459;SDS011;12630;50.860;5.714;2022-12-28T08:12:15;1.45;;;0.63;;
24459;SDS011;12630;50.860;5.714;2022-12-28T08:14:42;1.05;;;0.73;;
24459;SDS011;12630;50.860;5.714;2022-12-28T08:17:09;2.90;;;0.65;;
24459;SDS011;12630;50.860;5.714;2022-12-28T08:19:36;1.15;;;0.50;;
24459;SDS011;12630;50.860;5.714;2022-12-28T08:22:03;2.00;;;0.77;;
24459;SDS011;12630;50.860;5.714;2022-12-28T08:24:32;1.23;;;0.68;;
24459;SDS011;12630;50.860;5.714;2022-12-28T08:27:00;1.33;;;0.68;;
24459;SDS011;12630;50.860;5.714;2022-12-28T08:29:27;1.80;;;0.63;;
24459;SDS011;12630;50.860;5.714;2022-12-28T08:31:55;0.73;;;0.57;;
24459;SDS011;12630;50.860;5.714;2022-12-28T08:34:22;0.73;;;0.52;;
24459;SDS011;12630;50.860;5.714;2022-12-28T08:36:51;3.83;;;0.70;;
24459;SDS011;12630;50.860;5.714;2022-12-28T08:39:18;0.75;;;0.65;;
24459;SDS011;12630;50.860;5.714;2022-12-28T08:41:47;2.30;;;0.50;;
24459;SDS011;12630;50.860;5.714;2022-12-28T08:44:14;1.33;;;0.60;;
24459;SDS011;12630;50.860;5.714;2022-12-28T08:46:42;1.05;;;0.60;;
24459;SDS011;12630;50.860;5.714;2022-12-28T08:49:09;0.57;;;0.45;;
24459;SDS011;12630;50.860;5.714;2022-12-28T08:51:37;1.55;;;0.63;;
24459;SDS011;12630;50.860;5.714;2022-12-28T08:54:07;0.68;;;0.68;;
24459;SDS011;12630;50.860;5.714;2022-12-28T08:56:35;1.63;;;0.93;;
24459;SDS011;12630;50.860;5.714;2022-12-28T08:59:05;0.93;;;0.73;;
24459;SDS011;12630;50.860;5.714;2022-12-28T09:01:33;0.65;;;0.50;;
24459;SDS011;12630;50.860;5.714;2022-12-28T09:04:01;1.83;;;0.40;;
24459;SDS011;12630;50.860;5.714;2022-12-28T09:06:29;2.30;;;0.55;;
24459;SDS011;12630;50.860;5.714;2022-12-28T09:08:59;1.70;;;0.60;;
24459;SDS011;12630;50.860;5.714;2022-12-28T09:11:27;1.92;;;0.80;;
24459;SDS011;12630;50.860;5.714;2022-12-28T09:13:54;1.00;;;0.50;;
24459;SDS011;12630;50.860;5.714;2022-12-28T09:16:24;1.38;;;0.52;;
24459;SDS011;12630;50.860;5.714;2022-12-28T09:18:53;2.78;;;0.65;;
24459;SDS011;12630;50.860;5.714;2022-12-28T09:21:21;1.38;;;0.55;;
24459;SDS011;12630;50.860;5.714;2022-12-28T09:23:50;1.60;;;0.90;;
24459;SDS011;12630;50.860;5.714;2022-12-28T09:26:18;2.45;;;0.80;;
24459;SDS011;12630;50.860;5.714;2022-12-28T09:28:46;1.13;;;0.45;;
24459;SDS011;12630;50.860;5.714;2022-12-28T09:31:15;2.30;;;0.63;;
24459;SDS011;12630;50.860;5.714;2022-12-28T09:33:45;2.97;;;1.00;;
24459;SDS011;12630;50.860;5.714;2022-12-28T09:36:25;0.95;;;0.75;;
24459;SDS011;12630;50.860;5.714;2022-12-28T09:38:54;1.25;;;0.60;;
24459;SDS011;12630;50.860;5.714;2022-12-28T09:41:22;1.85;;;0.73;;
24459;SDS011;12630;50.860;5.714;2022-12-28T09:43:53;2.38;;;0.75;;
24459;SDS011;12630;50.860;5.714;2022-12-28T09:46:27;2.42;;;0.73;;
24459;SDS011;12630;50.860;5.714;2022-12-28T09:48:58;2.92;;;0.57;;
24459;SDS011;12630;50.860;5.714;2022-12-28T09:51:27;2.42;;;0.55;;
24459;SDS011;12630;50.860;5.714;2022-12-28T09:53:59;0.55;;;0.50;;
24459;SDS011;12630;50.860;5.714;2022-12-28T09:56:30;2.08;;;0.75;;
24459;SDS011;12630;50.860;5.714;2022-12-28T09:59:00;0.40;;;0.40;;
24459;SDS011;12630;50.860;5.714;2022-12-28T10:01:31;1.45;;;0.93;;
24459;SDS011;12630;50.860;5.714;2022-12-28T10:04:02;1.23;;;0.80;;
24459;SDS011;12630;50.860;5.714;2022-12-28T10:06:30;2.50;;;0.93;;
24459;SDS011;12630;50.860;5.714;2022-12-28T10:09:01;1.27;;;0.50;;
24459;SDS011;12630;50.860;5.714;2022-12-28T10:13:59;1.52;;;0.60;;
24459;SDS011;12630;50.860;5.714;2022-12-28T10:16:28;1.80;;;1.27;;
24459;SDS011;12630;50.860;5.714;2022-12-28T10:18:57;4.65;;;1.05;;
24459;SDS011;12630;50.860;5.714;2022-12-28T10:21:27;1.20;;;0.80;;
24459;SDS011;12630;50.860;5.714;2022-12-28T10:23:57;1.50;;;0.90;;
24459;SDS011;12630;50.860;5.714;2022-12-28T10:26:26;2.28;;;0.95;;
24459;SDS011;12630;50.860;5.714;2022-12-28T10:28:54;2.42;;;1.15;;
24459;SDS011;12630;50.860;5.714;2022-12-28T10:31:31;3.80;;;0.80;;
24459;SDS011;12630;50.860;5.714;2022-12-28T10:34:00;1.23;;;0.90;;
24459;SDS011;12630;50.860;5.714;2022-12-28T10:36:40;1.17;;;0.75;;
24459;SDS011;12630;50.860;5.714;2022-12-28T10:39:10;1.15;;;0.80;;
24459;SDS011;12630;50.860;5.714;2022-12-28T10:41:42;1.13;;;0.80;;
24459;SDS011;12630;50.860;5.714;2022-12-28T10:44:12;2.42;;;0.90;;
24459;SDS011;12630;50.860;5.714;2022-12-28T10:46:49;1.73;;;0.70;;
24459;SDS011;12630;50.860;5.714;2022-12-28T10:49:22;2.25;;;1.00;;
24459;SDS011;12630;50.860;5.714;2022-12-28T10:52:00;1.58;;;1.00;;
24459;SDS011;12630;50.860;5.714;2022-12-28T10:54:30;3.33;;;0.98;;
24459;SDS011;12630;50.860;5.714;2022-12-28T10:56:59;2.60;;;1.02;;
24459;SDS011;12630;50.860;5.714;2022-12-28T10:59:26;1.98;;;1.10;;
24459;SDS011;12630;50.860;5.714;2022-12-28T11:01:55;2.75;;;1.25;;
24459;SDS011;12630;50.860;5.714;2022-12-28T11:04:53;2.35;;;0.90;;
24459;SDS011;12630;50.860;5.714;2022-12-28T11:07:30;1.77;;;0.85;;
24459;SDS011;12630;50.860;5.714;2022-12-28T11:10:15;1.30;;;1.00;;
24459;SDS011;12630;50.860;5.714;2022-12-28T11:12:51;1.25;;;0.47;;
24459;SDS011;12630;50.860;5.714;2022-12-28T11:15:21;3.27;;;0.90;;
24459;SDS011;12630;50.860;5.714;2022-12-28T11:17:52;1.23;;;0.90;;
24459;SDS011;12630;50.860;5.714;2022-12-28T11:20:22;1.10;;;0.80;;
24459;SDS011;12630;50.860;5.714;2022-12-28T11:23:00;2.88;;;0.90;;
24459;SDS011;12630;50.860;5.714;2022-12-28T11:25:32;1.25;;;0.70;;
24459;SDS011;12630;50.860;5.714;2022-12-28T11:32:58;2.05;;;0.88;;
24459;SDS011;12630;50.860;5.714;2022-12-28T11:35:30;1.02;;;0.70;;
24459;SDS011;12630;50.860;5.714;2022-12-28T11:38:02;2.95;;;1.30;;
24459;SDS011;12630;50.860;5.714;2022-12-28T11:40:50;1.27;;;0.52;;
24459;SDS011;12630;50.860;5.714;2022-12-28T11:46:39;1.67;;;0.80;;
24459;SDS011;12630;50.860;5.714;2022-12-28T11:49:24;5.25;;;0.60;;
24459;SDS011;12630;50.860;5.714;2022-12-28T12:01:09;2.25;;;0.93;;
24459;SDS011;12630;50.860;5.714;2022-12-28T12:04:15;4.53;;;0.90;;
24459;SDS011;12630;50.860;5.714;2022-12-28T23:54:51;1.40;;;0.50;;
24459;SDS011;12630;50.860;5.714;2022-12-28T23:57:19;0.57;;;0.40;;
24459;SDS011;12630;50.860;5.714;2022-12-28T23:59:47;0.60;;;0.60;;
